Evansville Regional Airport
KEVV : now visible

Airfield :











YOU CAN JOIN US ON...

 
LOGIN :

Register | Disclaimer

   EN    FR    IT 

 









Legend :    VFR   Marginal VFR   IFR   Intensive IFR   Very Intensive IFR
Visi :
Ceiling :
>= 8 km
>= 3000ft
5 to 8 km
1000 to 3000 ft
1500m to 5 km
500 to 1000 ft
800 to 1500m
200 to 500 ft
< 800m
< 200 ft
Symbols :   Thunderstorms  Fog  Heavy snow  Heavy precipitations  Wind > 20 kt






- Airport Elevation : 418 ft
- IATA code : EVV


KEVV - Evansville Regional

CURRENT METAR :
  • 291920Z 30006KT 1 1/2SM BR OVC003 07/06 A3013 RMK AO2 T00670056

EXPIRED METARs :
  • 291854Z 31006KT 3SM BR OVC004 08/06 A3012 RMK AO2 SLP201 T00780061
  • 291754Z 29004KT 10SM OVC007 09/07 A3015 RMK AO2 SLP209 T00890067 10089 20072 50006
  • 291654Z 27004KT 10SM OVC007 08/07 A3015 RMK AO2 SLP212 T00830072

TAF KEVV
Valid from the 29 at 19:00 until the 30 at 18:00 UTC


291907Z 2919/3018 32008KT P6SM OVC007
TEMPO 2919/2922 3SM BR OVC004
FM292200 35008KT P6SM OVC010
FM300800 35008KT 5SM -DZ BR OVC006
FM301200 35009KT 5SM -FZDZ BR OVC007
FM301500 34010KT P6SM OVC007
KZID FIR / North America



MET'MAP, your aeronautical weather chart ! - Copyright ORBIFLY December 2007 - Disclaimer

ORBIFLY MET'MAP TEAM :

Programming & Development : Alexandra Zaïnal
Original concept : Baudouin d'Aumeries
Technical & hardware support : Manuel Goepfert
Assistance : Marc-Olivier Méhu




SOURCES & CREDITS :

   NOAA       Earth
Advisory